createdAt,value
2023-01-27T00:02:04.487Z,100797.66
2023-01-27T00:07:06.122Z,100800.34
2023-01-27T00:12:39.439Z,100789.63
2023-01-27T00:17:41.584Z,100793.28
2023-01-27T00:23:01.716Z,100787.06
2023-01-27T00:28:05.856Z,100784.41
2023-01-27T00:33:30.062Z,100780.81
2023-01-27T00:38:33.761Z,100782.75
2023-01-27T00:43:35.407Z,100790.75
2023-01-27T00:48:37.272Z,100790.50
2023-01-27T00:53:39.302Z,100792.28
2023-01-27T00:58:41.111Z,100787.72
2023-01-27T01:03:43.332Z,100787.56
2023-01-27T01:08:45.216Z,100793.59
2023-01-27T01:13:47.273Z,100791.09
2023-01-27T01:18:49.200Z,100786.72
2023-01-27T01:23:51.041Z,100791.09
2023-01-27T01:28:52.761Z,100790.44
2023-01-27T01:33:54.404Z,100785.72
2023-01-27T01:38:59.215Z,100789.09
2023-01-27T01:44:22.519Z,100784.44
2023-01-27T01:49:28.419Z,100789.75
2023-01-27T01:54:38.795Z,100790.75
2023-01-27T01:59:59.923Z,100796.97
2023-01-27T02:05:14.916Z,100798.69
2023-01-27T02:10:16.769Z,100803.25
2023-01-27T02:15:21.607Z,100802.19
2023-01-27T02:20:32.324Z,100796.97
2023-01-27T02:25:43.801Z,100801.53
2023-01-27T02:30:45.727Z,100798.97
2023-01-27T02:36:17.790Z,100798.75
2023-01-27T02:41:40.377Z,100801.41
2023-01-27T02:46:42.404Z,100792.47
2023-01-27T02:51:44.301Z,100805.06
2023-01-27T02:56:46.146Z,100814.66
2023-01-27T03:01:51.644Z,100824.38
2023-01-27T03:06:54.523Z,100821.16
2023-01-27T03:12:14.849Z,100830.28
2023-01-27T03:17:35.178Z,100820.50
2023-01-27T03:22:37.737Z,100820.41
2023-01-27T03:27:39.507Z,100822.28
2023-01-27T03:33:10.560Z,100824.13
2023-01-27T03:38:53.736Z,100823.28
2023-01-27T03:44:14.209Z,100827.84
2023-01-27T03:49:15.987Z,100832.47
2023-01-27T03:54:17.603Z,100835.97
2023-01-27T03:59:19.283Z,100836.03
2023-01-27T04:04:39.358Z,100829.09
2023-01-27T04:09:41.010Z,100842.34
2023-01-27T04:14:42.658Z,100836.03
2023-01-27T04:19:44.791Z,100834.25
2023-01-27T04:24:46.502Z,100828.03
2023-01-27T04:29:48.411Z,100828.16
2023-01-27T04:34:50.134Z,100824.41
2023-01-27T04:39:52.048Z,100825.25
2023-01-27T04:44:53.687Z,100818.16
2023-01-27T04:49:55.601Z,100825.25
2023-01-27T04:54:57.358Z,100828.75
2023-01-27T04:59:59.058Z,100828.84
2023-01-27T05:05:04.662Z,100822.81
2023-01-27T05:10:07.472Z,100822.81
2023-01-27T05:15:09.429Z,100821.09
2023-01-27T05:20:11.729Z,100825.72
2023-01-27T05:25:13.635Z,100837.09
2023-01-27T05:30:15.728Z,100853.78
2023-01-27T05:35:17.509Z,100839.56
2023-01-27T05:40:19.224Z,100846.56
2023-01-27T05:45:21.007Z,100858.88
2023-01-27T05:50:22.770Z,100865.09
2023-01-27T05:55:24.398Z,100868.34
2023-01-27T06:00:26.163Z,100866.69
2023-01-27T06:05:27.784Z,100876.22
2023-01-27T06:10:29.806Z,100869.28
2023-01-27T06:15:31.987Z,100874.44
2023-01-27T06:20:33.741Z,100885.72
2023-01-27T06:25:37.530Z,100869.94
2023-01-27T06:30:40.075Z,100878.63
2023-01-27T06:35:41.836Z,100885.63
2023-01-27T06:40:44.240Z,100888.28
2023-01-27T06:45:46.081Z,100892.53
2023-01-27T06:50:47.700Z,100893.19
2023-01-27T06:55:49.706Z,100890.41
2023-01-27T07:00:52.161Z,100895.03
2023-01-27T07:05:53.829Z,100911.72
2023-01-27T07:10:55.507Z,100910.41
2023-01-27T07:15:57.702Z,100918.28
2023-01-27T07:20:59.391Z,100922.59
2023-01-27T07:26:04.262Z,100926.16
2023-01-27T07:31:09.802Z,100924.56
2023-01-27T07:36:11.566Z,100928.16
2023-01-27T07:41:14.648Z,100931.47
2023-01-27T07:46:16.286Z,100940.00
2023-01-27T07:51:17.978Z,100932.66
2023-01-27T07:56:19.608Z,100940.38
2023-01-27T08:01:21.286Z,100946.78
2023-01-27T08:06:23.041Z,100950.41
2023-01-27T08:11:24.650Z,100953.06
2023-01-27T08:16:26.278Z,100960.94
2023-01-27T08:21:32.821Z,100956.47
2023-01-27T08:26:34.485Z,100962.88
2023-01-27T08:31:36.217Z,100967.50
2023-01-27T08:36:41.852Z,100976.31
2023-01-27T08:41:43.457Z,100982.41
2023-01-27T08:46:45.306Z,100979.69
2023-01-27T08:51:47.127Z,100971.47
2023-01-27T08:56:48.798Z,100979.41
2023-01-27T09:01:50.432Z,100982.78
2023-01-27T09:06:54.180Z,100991.88
2023-01-27T09:11:55.816Z,100990.91
2023-01-27T09:16:57.459Z,100993.56
2023-01-27T09:21:59.625Z,100998.81
2023-01-27T09:27:01.345Z,100993.06
2023-01-27T09:32:03.758Z,100999.94
2023-01-27T09:37:08.833Z,101012.00
2023-01-27T09:42:27.188Z,101011.16
2023-01-27T09:47:42.166Z,101017.06
2023-01-27T09:52:50.879Z,101011.03
2023-01-27T09:58:02.208Z,101012.81
2023-01-27T10:03:26.354Z,101016.94
2023-01-27T10:08:52.777Z,101008.97
2023-01-27T10:14:18.890Z,101013.09
2023-01-27T10:19:20.439Z,101006.25
2023-01-27T10:24:37.202Z,101004.53
2023-01-27T10:29:47.053Z,101008.03
2023-01-27T10:35:23.918Z,101004.41
2023-01-27T10:40:47.360Z,101003.53
2023-01-27T10:46:23.889Z,101002.88
2023-01-27T10:51:35.645Z,101004.72
2023-01-27T10:56:47.527Z,100999.44
2023-01-27T11:01:56.362Z,101010.88
2023-01-27T11:06:59.089Z,101014.72
2023-01-27T11:12:02.854Z,101006.91
2023-01-27T11:17:37.630Z,101021.03
2023-01-27T11:22:55.667Z,101013.53
2023-01-27T11:28:11.211Z,101009.09
2023-01-27T11:33:44.227Z,101001.28
2023-01-27T11:38:46.494Z,100998.44
2023-01-27T11:43:48.285Z,100995.53
2023-01-27T11:48:52.453Z,100999.75
2023-01-27T11:54:20.737Z,100997.63
2023-01-27T11:59:52.769Z,100998.44
2023-01-27T12:05:10.079Z,100990.25
2023-01-27T12:10:24.258Z,100985.25
2023-01-27T12:15:31.135Z,100978.53
2023-01-27T12:20:32.753Z,100966.19
2023-01-27T12:25:44.739Z,100957.31
2023-01-27T12:30:46.972Z,100964.41
2023-01-27T12:35:49.377Z,100972.44
2023-01-27T12:41:01.508Z,100961.69
2023-01-27T12:46:06.188Z,100964.84
2023-01-27T12:51:15.639Z,100961.06
2023-01-27T12:56:22.474Z,100962.56
2023-01-27T13:01:27.035Z,100949.03
2023-01-27T13:06:42.533Z,100952.75
2023-01-27T13:11:44.800Z,100956.53
2023-01-27T13:16:54.244Z,100952.63
2023-01-27T13:21:56.262Z,100958.06
2023-01-27T13:26:58.555Z,100963.69
2023-01-27T13:32:23.681Z,100963.84
2023-01-27T13:37:38.063Z,100961.06
2023-01-27T13:42:55.475Z,100955.91
2023-01-27T13:48:00.335Z,100960.94
2023-01-27T13:53:02.613Z,100961.72
2023-01-27T13:58:13.182Z,100961.09
2023-01-27T14:03:26.082Z,100959.06
2023-01-27T14:08:54.096Z,100968.41
2023-01-27T14:14:04.523Z,100965.97
2023-01-27T14:19:12.028Z,100960.44
2023-01-27T14:24:35.738Z,100970.63
2023-01-27T14:29:40.504Z,100984.53
2023-01-27T14:35:07.788Z,100996.81
2023-01-27T14:40:15.876Z,100990.06
2023-01-27T14:45:30.711Z,100984.19
2023-01-27T14:50:49.521Z,100995.03
2023-01-27T14:56:18.517Z,100997.75
2023-01-27T15:01:31.969Z,101005.78
2023-01-27T15:06:47.752Z,101008.50
2023-01-27T15:12:12.399Z,101009.22
2023-01-27T15:17:28.750Z,101015.63
2023-01-27T15:22:54.904Z,101017.56
2023-01-27T15:27:56.725Z,101025.66
2023-01-27T15:32:58.382Z,101029.03
2023-01-27T15:38:00.365Z,101018.41
2023-01-27T15:43:05.165Z,101018.34
2023-01-27T15:48:11.858Z,101032.47
2023-01-27T15:53:16.776Z,101032.41
2023-01-27T15:58:23.188Z,101025.22
2023-01-27T16:03:48.117Z,101029.59
2023-01-27T16:09:05.647Z,101032.19
2023-01-27T16:14:16.976Z,101026.94
2023-01-27T16:19:19.656Z,101035.72
2023-01-27T16:24:41.838Z,101041.03
2023-01-27T16:29:49.011Z,101048.06
2023-01-27T16:34:53.503Z,101050.63
2023-01-27T16:39:56.536Z,101049.63
2023-01-27T16:45:01.542Z,101055.59
2023-01-27T16:50:03.373Z,101057.16
2023-01-27T16:55:05.437Z,101060.53
2023-01-27T17:00:20.156Z,101053.09
2023-01-27T17:05:22.333Z,101059.06
2023-01-27T17:10:34.209Z,101060.66
2023-01-27T17:15:38.117Z,101073.78
2023-01-27T17:20:43.059Z,101076.31
2023-01-27T17:25:46.556Z,101082.47
2023-01-27T17:30:48.364Z,101085.13
2023-01-27T17:35:52.664Z,101090.53
2023-01-27T17:40:55.355Z,101094.97
2023-01-27T17:46:06.245Z,101087.94
2023-01-27T17:51:12.969Z,101098.63
2023-01-27T17:56:19.799Z,101102.16
2023-01-27T18:01:21.737Z,101102.16
2023-01-27T18:06:29.629Z,101105.59
2023-01-27T18:11:32.759Z,101102.88
2023-01-27T18:16:35.319Z,101101.94
2023-01-27T18:21:37.254Z,101105.53
2023-01-27T18:26:38.809Z,101103.81
2023-01-27T18:31:57.064Z,101106.38
2023-01-27T18:37:06.600Z,101121.53
2023-01-27T18:42:15.089Z,101130.38
2023-01-27T18:47:19.638Z,101132.88
2023-01-27T18:52:21.778Z,101140.94
2023-01-27T18:57:23.482Z,101144.59
2023-01-27T19:02:25.444Z,101146.38
2023-01-27T19:07:27.091Z,101145.53
2023-01-27T19:12:28.715Z,101155.22
2023-01-27T19:17:30.393Z,101155.16
2023-01-27T19:22:32.033Z,101152.56
2023-01-27T19:27:33.874Z,101150.03
2023-01-27T19:32:35.563Z,101150.91
2023-01-27T19:37:37.254Z,101166.78
2023-01-27T19:42:38.965Z,101156.16
2023-01-27T19:47:43.691Z,101164.19
2023-01-27T19:52:45.705Z,101166.84
2023-01-27T19:57:48.541Z,101157.88
2023-01-27T20:02:50.753Z,101168.50
2023-01-27T20:07:57.241Z,101170.38
2023-01-27T20:13:00.607Z,101180.06
2023-01-27T20:18:02.278Z,101173.81
2023-01-27T20:23:03.997Z,101182.56
2023-01-27T20:28:05.696Z,101183.50
2023-01-27T20:33:07.352Z,101195.72
2023-01-27T20:38:09.196Z,101185.97
2023-01-27T20:43:12.212Z,101184.88
2023-01-27T20:48:13.884Z,101181.38
2023-01-27T20:53:15.551Z,101184.94
2023-01-27T20:58:17.210Z,101177.78
2023-01-27T21:03:18.916Z,101186.81
2023-01-27T21:08:21.947Z,101193.72
2023-01-27T21:13:23.686Z,101183.94
2023-01-27T21:18:25.459Z,101186.69
2023-01-27T21:23:31.740Z,101187.75
2023-01-27T21:28:34.021Z,101193.06
2023-01-27T21:33:37.510Z,101186.03
2023-01-27T21:38:39.443Z,101195.59
2023-01-27T21:43:59.844Z,101193.78
2023-01-27T21:49:01.480Z,101193.72
2023-01-27T21:54:03.429Z,101190.19
2023-01-27T21:59:05.134Z,101185.75
2023-01-27T22:04:07.108Z,101179.50
2023-01-27T22:09:08.794Z,101183.94
2023-01-27T22:14:10.461Z,101187.53
2023-01-27T22:19:12.131Z,101178.72
2023-01-27T22:24:13.914Z,101186.69
2023-01-27T22:29:16.006Z,101190.25
2023-01-27T22:34:17.698Z,101189.41
2023-01-27T22:39:19.848Z,101178.06
2023-01-27T22:44:21.721Z,101177.19
2023-01-27T22:49:23.447Z,101187.75
2023-01-27T22:54:25.309Z,101187.81
2023-01-27T22:59:27.021Z,101192.41
2023-01-27T23:04:28.760Z,101188.81
2023-01-27T23:09:31.300Z,101183.50
2023-01-27T23:14:32.943Z,101187.50
2023-01-27T23:19:34.570Z,101186.22
2023-01-27T23:24:36.295Z,101183.72
2023-01-27T23:29:37.944Z,101179.47
2023-01-27T23:34:39.737Z,101175.94
2023-01-27T23:39:46.003Z,101176.88
2023-01-27T23:44:47.844Z,101175.88
2023-01-27T23:49:49.452Z,101171.22
2023-01-27T23:54:51.152Z,101177.19
2023-01-27T23:59:52.785Z,101179.28
